Terminal Aerodrome Forecast
Issued by NWS

Home | Current Version | Previous Version | Graphics & Text | Print | Product List | Glossary Off
Versions: 1 2 3 4 5 6 7 8 9 10 11 12 13 14

000
FTUS43 KGRB 191132
TAFMTW
TAF
KMTW 191132Z 1912/2012 12004KT 6SM BR OVC060
     FM191600 06007KT P6SM OVC035
     FM191800 05009G15KT 4SM -RA OVC017
     FM192000 04011G19KT 3SM -RA OVC006
     FM192300 03010G17KT 3SM -FZRA BR OVC006
     FM200400 36006KT 3SM -FZDZ BR OVC004=

USA.gov is the U.S. government's official web portal to all federal, state and local government web resources and services.